Time;durP1;ratioP1;P1;durP2;ratioP2;P2;SDS_P1;SDS_P2;PMS_P1;PMS_P2;Temp;Humidity;BMP_temperature;BMP_pressure;BME280_temperature;BME280_humidity;BME280_pressure;Samples;Min_cycle;Max_cycle;Signal;HPM_P1;HPM_P2
2022/12/25 00:02:59;;;;;;;29.40;16.80;;;;;;;6.72;87.88;100229.26;125610;1290;106427;-71
2022/12/25 00:06:05;;;;;;;26.10;13.90;;;;;;;6.69;87.90;100226.65;125634;1312;107331;-71
2022/12/25 00:09:10;;;;;;;30.10;15.00;;;;;;;6.67;87.79;100223.23;125681;1306;107284;-71
2022/12/25 00:12:18;;;;;;;29.70;15.80;;;;;;;6.67;87.64;100214.94;125525;1299;106662;-71
2022/12/25 00:15:23;;;;;;;30.00;16.30;;;;;;;6.69;87.71;100216.21;125652;1306;107467;-71
2022/12/25 00:18:29;;;;;;;32.10;16.50;;;;;;;6.70;87.43;100229.42;125639;1303;107322;-70
2022/12/25 00:21:34;;;;;;;28.70;15.70;;;;;;;6.71;87.64;100236.57;125670;1295;107552;-71
2022/12/25 00:24:40;;;;;;;31.60;16.40;;;;;;;6.73;87.79;100242.27;125645;1306;108300;-71
2022/12/25 00:27:45;;;;;;;30.90;16.70;;;;;;;6.73;87.41;100254.09;125624;1306;107578;-71
2022/12/25 00:30:52;;;;;;;27.30;14.30;;;;;;;6.72;87.78;100248.32;125639;1306;107517;-70
2022/12/25 00:33:57;;;;;;;28.90;14.00;;;;;;;6.71;87.66;100243.66;125670;1306;107507;-71
2022/12/25 00:37:03;;;;;;;30.30;16.80;;;;;;;6.69;87.56;100260.06;125624;1306;107407;-71
2022/12/25 00:40:11;;;;;;;32.40;16.90;;;;;;;6.71;87.90;100280.77;125633;1299;107546;-71
2022/12/25 00:43:16;;;;;;;35.90;18.30;;;;;;;6.75;87.90;100283.76;125690;1306;107533;-71
2022/12/25 00:46:22;;;;;;;38.50;19.30;;;;;;;6.77;87.70;100280.30;125671;1304;107550;-71
2022/12/25 00:49:27;;;;;;;38.40;19.40;;;;;;;6.78;87.57;100282.80;125672;1306;108266;-72
2022/12/25 00:52:33;;;;;;;37.80;19.30;;;;;;;6.79;87.48;100291.58;125600;1306;107858;-71
2022/12/25 00:55:39;;;;;;;36.20;19.60;;;;;;;6.78;87.34;100286.76;125632;1306;107567;-71
2022/12/25 00:58:44;;;;;;;37.50;18.80;;;;;;;6.74;87.84;100284.09;125618;1306;107286;-71
2022/12/25 01:01:50;;;;;;;37.30;18.50;;;;;;;6.70;87.70;100291.80;125610;1306;107629;-71
2022/12/25 01:04:57;;;;;;;39.00;19.30;;;;;;;6.70;87.74;100292.16;125590;1305;107394;-70
2022/12/25 01:08:02;;;;;;;38.90;19.80;;;;;;;6.71;87.56;100292.09;125676;1306;107498;-71
2022/12/25 01:11:09;;;;;;;41.20;20.40;;;;;;;6.76;87.55;100296.09;125662;1305;108608;-71
2022/12/25 01:14:15;;;;;;;39.00;20.20;;;;;;;6.78;87.49;100288.66;125597;1305;107515;-70
2022/12/25 01:17:20;;;;;;;38.70;20.20;;;;;;;6.77;87.37;100289.29;125707;1305;108535;-71
2022/12/25 01:20:26;;;;;;;39.00;20.60;;;;;;;6.74;87.46;100289.75;125616;1306;107548;-71
2022/12/25 01:23:31;;;;;;;35.70;17.60;;;;;;;6.70;87.75;100291.61;125596;1305;107702;-72
2022/12/25 01:26:38;;;;;;;36.00;17.90;;;;;;;6.67;87.63;100296.48;124380;1306;1733824;-71
2022/12/25 01:29:45;;;;;;;38.10;20.20;;;;;;;6.65;87.61;100305.61;125635;1305;107647;-71
2022/12/25 01:32:50;;;;;;;38.60;19.60;;;;;;;6.67;87.75;100307.05;125681;1305;106600;-71
2022/12/25 01:35:56;;;;;;;37.70;20.60;;;;;;;6.70;87.64;100309.09;125615;1305;107687;-70
2022/12/25 01:39:02;;;;;;;40.00;20.20;;;;;;;6.71;87.63;100303.79;125721;1306;106455;-70
2022/12/25 01:42:10;;;;;;;39.50;20.20;;;;;;;6.72;87.46;100303.52;125595;1305;107547;-71
2022/12/25 01:45:37;;;;;;;40.40;20.20;;;;;;;6.72;87.63;100308.11;125562;1306;107590;-70
2022/12/25 01:48:43;;;;;;;33.50;16.80;;;;;;;6.68;87.69;100312.27;125459;1312;107644;-71
2022/12/25 01:51:53;;;;;;;37.80;17.70;;;;;;;6.67;87.66;100305.85;125610;1305;106720;-70
2022/12/25 01:55:03;;;;;;;38.90;18.60;;;;;;;6.69;87.95;100299.70;125625;1302;107459;-71
2022/12/25 01:58:09;;;;;;;38.10;19.60;;;;;;;6.71;87.65;100307.46;125572;1306;107313;-71
2022/12/25 02:01:15;;;;;;;36.00;18.30;;;;;;;6.73;87.64;100299.91;125629;1306;107429;-71
2022/12/25 02:04:37;;;;;;;39.10;19.30;;;;;;;6.74;87.72;100298.71;125539;1305;107546;-71
2022/12/25 02:07:44;;;;;;;42.00;19.70;;;;;;;6.75;87.43;100298.13;125578;1305;107402;-71
2022/12/25 02:10:49;;;;;;;40.80;20.10;;;;;;;6.73;87.59;100303.56;125651;1305;107523;-71
2022/12/25 02:13:55;;;;;;;51.80;21.00;;;;;;;6.67;87.34;100305.77;125647;1302;107560;-70
2022/12/25 02:17:11;;;;;;;55.50;21.00;;;;;;;6.61;87.41;100307.55;125658;1306;107935;-70
2022/12/25 02:20:40;;;;;;;50.90;22.10;;;;;;;6.58;87.41;100311.02;125656;1300;107372;-71
2022/12/25 02:24:19;;;;;;;51.70;23.30;;;;;;;6.57;87.46;100309.85;125577;1306;107253;-71
2022/12/25 02:27:36;;;;;;;47.10;21.10;;;;;;;6.60;87.68;100312.55;125640;1312;107429;-71
2022/12/25 02:30:50;;;;;;;56.70;28.30;;;;;;;6.63;87.65;100314.30;125655;1302;108030;-71
2022/12/25 02:34:03;;;;;;;42.60;22.50;;;;;;;6.64;87.63;100320.23;125645;1312;107570;-71
2022/12/25 02:37:14;;;;;;;40.00;20.00;;;;;;;6.65;87.63;100320.69;125640;1307;107542;-71
2022/12/25 02:40:25;;;;;;;36.20;17.10;;;;;;;6.63;87.82;100318.90;125573;1306;106718;-71
2022/12/25 03:07:40;;;;;;;35.90;17.00;;;;;;;6.72;87.74;100329.98;125565;1302;106682;-71
2022/12/25 03:17:37;;;;;;;36.60;18.60;;;;;;;6.81;87.58;100331.77;125576;1305;108131;-70
2022/12/25 03:27:34;;;;;;;34.70;17.70;;;;;;;6.79;87.54;100330.54;125658;1312;107288;-71
2022/12/25 04:36:09;;;;;;;109.90;45.50;;;;;;;6.45;88.60;100392.83;125495;1304;107905;-71
2022/12/25 04:39:14;;;;;;;245.90;102.50;;;;;;;6.43;88.75;100396.85;125628;1312;107333;-70
2022/12/25 04:42:20;;;;;;;218.90;99.10;;;;;;;6.40;88.51;100395.51;125628;1313;107416;-70
2022/12/25 04:45:25;;;;;;;49.90;26.90;;;;;;;6.35;88.91;100392.56;125501;1308;107274;-72
2022/12/25 04:48:33;;;;;;;62.20;41.50;;;;;;;6.30;89.00;100386.58;125622;1306;107431;-71
2022/12/25 04:51:38;;;;;;;36.10;19.70;;;;;;;6.32;89.38;100384.17;125652;1304;106543;-72
2022/12/25 04:54:44;;;;;;;35.00;20.60;;;;;;;6.36;89.19;100386.45;125630;1296;107544;-70
2022/12/25 04:57:49;;;;;;;32.20;17.80;;;;;;;6.38;89.43;100387.19;125509;1306;107297;-70
2022/12/25 05:00:58;;;;;;;63.60;32.20;;;;;;;6.39;89.28;100386.54;125486;1304;108094;-70
2022/12/25 05:04:04;;;;;;;98.10;37.90;;;;;;;6.44;89.34;100385.45;125489;1312;107766;-71
2022/12/25 05:07:09;;;;;;;86.50;37.40;;;;;;;6.49;89.20;100388.63;125490;1306;108145;-71
2022/12/25 05:10:15;;;;;;;193.00;69.30;;;;;;;6.54;89.47;100388.73;125567;1310;108702;-71
2022/12/25 05:13:21;;;;;;;261.20;93.70;;;;;;;6.61;89.47;100389.61;125676;1312;109240;-71
2022/12/25 05:16:26;;;;;;;247.70;85.70;;;;;;;6.61;89.39;100390.85;125652;1306;106987;-71
2022/12/25 05:19:32;;;;;;;144.10;54.00;;;;;;;6.57;89.38;100392.55;125610;1312;105536;-71
2022/12/25 05:22:37;;;;;;;180.70;64.80;;;;;;;6.53;89.49;100395.73;125617;1312;107570;-71
2022/12/25 05:25:43;;;;;;;294.90;98.90;;;;;;;6.47;89.55;100394.06;125660;1306;107657;-71
2022/12/25 05:28:48;;;;;;;90.70;31.80;;;;;;;6.53;89.74;100402.27;125621;1312;107619;-71
2022/12/25 05:31:54;;;;;;;463.20;186.20;;;;;;;6.60;89.72;100401.88;125599;1306;107369;-70
2022/12/25 05:34:59;;;;;;;183.00;79.90;;;;;;;6.65;89.52;100405.11;125506;1308;108259;-70
2022/12/25 05:38:05;;;;;;;159.50;83.10;;;;;;;6.65;89.42;100409.42;125524;1303;107590;-70
2022/12/25 05:41:11;;;;;;;183.90;100.80;;;;;;;6.65;89.55;100415.19;125525;1302;109457;-70
2022/12/25 05:44:16;;;;;;;69.50;36.10;;;;;;;6.68;89.66;100421.72;125447;1312;108183;-73
2022/12/25 05:47:22;;;;;;;50.10;22.20;;;;;;;6.67;89.64;100422.27;125528;1312;105480;-70
2022/12/25 05:50:27;;;;;;;44.90;21.00;;;;;;;6.72;89.74;100426.20;125663;1306;107607;-70
2022/12/25 05:53:43;;;;;;;42.50;18.90;;;;;;;6.77;89.68;100431.55;125658;1306;107921;-71
2022/12/25 05:56:48;;;;;;;38.10;18.60;;;;;;;6.81;89.42;100432.13;125576;1302;107543;-71
2022/12/25 05:59:54;;;;;;;33.20;17.40;;;;;;;6.81;89.26;100431.60;125483;1312;108257;-71
2022/12/25 06:03:00;;;;;;;32.50;15.80;;;;;;;6.81;89.37;100436.94;125521;1308;107528;-71
2022/12/25 06:06:07;;;;;;;29.00;14.50;;;;;;;6.80;89.73;100441.83;125637;1303;107470;-71
2022/12/25 06:09:13;;;;;;;32.10;15.20;;;;;;;6.82;89.34;100452.27;125617;1312;108740;-71
2022/12/25 06:12:19;;;;;;;30.90;16.00;;;;;;;6.85;89.50;100449.89;125583;1312;107290;-71
2022/12/25 06:15:24;;;;;;;376.60;185.80;;;;;;;6.90;89.21;100456.55;125444;1312;108700;-71
2022/12/25 06:18:29;;;;;;;861.30;442.60;;;;;;;6.95;89.53;100463.39;125645;1311;107546;-71
2022/12/25 06:21:35;;;;;;;714.60;311.50;;;;;;;7.00;89.59;100469.34;125772;1306;107573;-70
2022/12/25 06:24:41;;;;;;;909.20;416.30;;;;;;;7.01;89.52;100478.64;125669;1312;107605;-71
2022/12/25 06:27:46;;;;;;;1038.80;456.60;;;;;;;7.02;89.39;100475.23;125628;1304;107524;-70
2022/12/25 06:30:52;;;;;;;509.50;192.50;;;;;;;7.01;89.44;100479.33;125643;1306;108575;-70
2022/12/25 06:33:57;;;;;;;1173.60;459.30;;;;;;;7.03;89.49;100488.35;125669;1312;107558;-71
2022/12/25 06:37:03;;;;;;;107.50;38.20;;;;;;;7.04;89.45;100496.61;125631;1312;107716;-71
2022/12/25 06:40:11;;;;;;;118.30;40.70;;;;;;;6.96;89.17;100506.44;125617;1305;107551;-70
2022/12/25 06:43:17;;;;;;;56.30;24.50;;;;;;;6.89;89.40;100508.77;125625;1303;108142;-70
2022/12/25 06:46:25;;;;;;;34.50;17.60;;;;;;;6.84;89.58;100517.87;125610;1303;107892;-70
2022/12/25 06:49:30;;;;;;;373.00;105.00;;;;;;;6.76;89.86;100525.54;125623;1305;107525;-70
2022/12/25 06:52:36;;;;;;;677.90;227.90;;;;;;;6.75;89.64;100532.39;125642;1312;107595;-71
2022/12/25 06:55:41;;;;;;;884.40;312.00;;;;;;;6.78;90.08;100535.86;125587;1312;107412;-71
2022/12/25 06:58:49;;;;;;;167.70;54.90;;;;;;;6.86;89.86;100537.15;125613;1306;107363;-71
2022/12/25 07:01:56;;;;;;;61.20;25.60;;;;;;;6.92;89.97;100541.85;125629;1312;107423;-71
2022/12/25 07:05:03;;;;;;;42.60;20.60;;;;;;;6.91;89.59;100552.73;125628;1306;108652;-71
2022/12/25 07:08:09;;;;;;;54.10;25.50;;;;;;;6.90;89.54;100555.10;125624;1312;107544;-71
2022/12/25 07:11:14;;;;;;;33.80;18.60;;;;;;;6.92;89.87;100559.70;125593;1306;108686;-71
2022/12/25 07:14:22;;;;;;;33.00;19.00;;;;;;;6.91;89.88;100561.37;125597;1306;107541;-71
2022/12/25 07:17:28;;;;;;;36.60;17.30;;;;;;;6.94;89.92;100570.09;125633;1305;107277;-71
2022/12/25 07:20:33;;;;;;;35.90;19.50;;;;;;;6.98;89.74;100577.08;125615;1304;106577;-71
2022/12/25 07:23:39;;;;;;;39.80;19.90;;;;;;;7.04;89.90;100574.42;125596;1305;107452;-70
2022/12/25 07:26:45;;;;;;;38.00;19.80;;;;;;;7.13;90.08;100583.52;125681;1306;107434;-72
2022/12/25 07:29:50;;;;;;;38.10;18.80;;;;;;;7.18;89.83;100589.30;125611;1306;107573;-71
2022/12/25 07:32:57;;;;;;;75.50;35.90;;;;;;;7.20;89.68;100592.41;125461;1306;108073;-71
2022/12/25 07:36:04;;;;;;;46.20;21.00;;;;;;;7.20;89.59;100597.08;125631;1312;108262;-70
2022/12/25 07:39:11;;;;;;;457.00;212.10;;;;;;;7.20;89.87;100598.50;125696;1299;107529;-71
2022/12/25 07:42:17;;;;;;;392.70;167.10;;;;;;;7.25;89.98;100600.91;125801;1312;107657;-72
2022/12/25 07:45:22;;;;;;;457.70;180.50;;;;;;;7.27;89.40;100609.61;125948;1307;107535;-72
2022/12/25 07:48:28;;;;;;;656.50;270.50;;;;;;;7.14;89.77;100615.55;125998;1306;105717;-70
2022/12/25 07:51:34;;;;;;;375.30;138.00;;;;;;;7.12;89.78;100617.14;125815;1310;107551;-70
2022/12/25 07:54:40;;;;;;;514.90;194.70;;;;;;;7.06;89.66;100622.95;125876;1310;108074;-70
2022/12/25 07:57:45;;;;;;;408.90;142.40;;;;;;;7.03;89.82;100628.16;125890;1297;107507;-71
2022/12/25 08:00:51;;;;;;;677.10;287.90;;;;;;;7.05;90.02;100628.98;125979;1303;107189;-72
2022/12/25 08:03:58;;;;;;;375.20;156.70;;;;;;;7.13;89.93;100627.34;125953;1298;107526;-71
2022/12/25 08:07:04;;;;;;;115.00;48.90;;;;;;;7.17;89.76;100631.45;125969;1302;107597;-70
2022/12/25 08:10:11;;;;;;;448.20;232.30;;;;;;;7.15;89.83;100629.69;125928;1307;107567;-70
2022/12/25 08:13:16;;;;;;;479.90;248.50;;;;;;;7.16;90.09;100626.95;126007;1307;108139;-71
2022/12/25 08:16:22;;;;;;;70.20;36.40;;;;;;;7.16;89.98;100636.51;125945;1306;106710;-71
2022/12/25 08:19:28;;;;;;;49.10;27.60;;;;;;;7.10;90.09;100640.66;125991;1296;107687;-71
2022/12/25 08:22:33;;;;;;;40.70;21.80;;;;;;;7.14;90.28;100641.09;125874;1297;108619;-71
2022/12/25 08:25:39;;;;;;;39.90;20.80;;;;;;;7.21;90.17;100644.55;125941;1296;107543;-70
2022/12/25 08:28:45;;;;;;;40.20;21.20;;;;;;;7.30;90.13;100647.26;125934;1306;108697;-71
2022/12/25 08:31:51;;;;;;;40.30;22.70;;;;;;;7.36;90.13;100649.73;125986;1306;107675;-71
2022/12/25 08:34:56;;;;;;;32.90;20.40;;;;;;;7.41;89.83;100647.20;125989;1302;107382;-71
2022/12/25 08:38:02;;;;;;;42.30;20.00;;;;;;;7.45;89.72;100649.02;125937;1296;107529;-71
2022/12/25 08:41:09;;;;;;;29.40;13.30;;;;;;;7.48;89.78;100650.38;125837;1305;107560;-71
2022/12/25 08:44:15;;;;;;;38.10;23.10;;;;;;;7.52;89.91;100653.48;125983;1310;105996;-71
2022/12/25 08:47:20;;;;;;;26.60;14.00;;;;;;;7.56;89.84;100654.36;125759;1305;107955;-70
2022/12/25 08:50:26;;;;;;;25.50;14.50;;;;;;;7.62;89.79;100659.00;125887;1305;107613;-71
2022/12/25 08:53:32;;;;;;;27.40;15.40;;;;;;;7.67;89.63;100661.97;125883;1306;107538;-71
2022/12/25 08:56:37;;;;;;;26.30;14.00;;;;;;;7.70;89.88;100659.06;125863;1302;107528;-70
2022/12/25 08:59:43;;;;;;;25.00;12.60;;;;;;;7.74;89.64;100661.03;125840;1305;106482;-71
2022/12/25 09:02:48;;;;;;;64.90;37.30;;;;;;;7.76;89.90;100659.66;125966;1296;107542;-71
2022/12/25 09:05:54;;;;;;;29.80;15.50;;;;;;;7.80;89.70;100664.13;125915;1297;107631;-71
2022/12/25 09:09:00;;;;;;;30.30;14.90;;;;;;;7.89;89.76;100665.52;125876;1305;107499;-71
2022/12/25 09:12:06;;;;;;;26.80;13.60;;;;;;;7.99;89.70;100662.58;125869;1307;107548;-71
2022/12/25 09:15:12;;;;;;;23.40;12.90;;;;;;;8.08;89.61;100659.70;125959;1297;107801;-71
2022/12/25 09:18:18;;;;;;;22.90;11.90;;;;;;;8.15;89.60;100659.60;125892;1305;106665;-71
2022/12/25 09:21:23;;;;;;;179.40;76.30;;;;;;;8.20;89.56;100656.70;125846;1306;107501;-71
2022/12/25 09:24:29;;;;;;;523.50;218.10;;;;;;;8.26;89.59;100663.34;125859;1307;107070;-72
2022/12/25 09:27:34;;;;;;;186.30;64.50;;;;;;;8.32;89.48;100666.20;125905;1302;106642;-71
2022/12/25 09:30:40;;;;;;;149.50;49.90;;;;;;;8.39;89.37;100666.89;125883;1305;107284;-71
2022/12/25 09:33:46;;;;;;;1269.00;551.10;;;;;;;8.44;89.23;100665.17;125880;1306;107484;-72
2022/12/25 09:36:51;;;;;;;725.00;276.90;;;;;;;8.51;89.34;100665.73;125794;1297;106645;-71
2022/12/25 09:39:57;;;;;;;480.00;155.50;;;;;;;8.56;89.22;100671.98;125967;1290;108727;-71
2022/12/25 09:43:03;;;;;;;1094.30;466.40;;;;;;;8.61;89.22;100669.69;125900;1297;108457;-71
2022/12/25 09:46:18;;;;;;;708.40;315.30;;;;;;;8.63;89.21;100669.11;125938;1290;107541;-71
2022/12/25 09:49:33;;;;;;;431.50;185.10;;;;;;;8.65;89.11;100665.55;125814;1296;107310;-71
2022/12/25 09:52:46;;;;;;;452.20;245.10;;;;;;;8.73;89.21;100664.05;125882;1305;107550;-71
2022/12/25 09:56:06;;;;;;;301.10;154.10;;;;;;;8.82;89.17;100653.84;125883;1305;107483;-71
2022/12/25 09:59:21;;;;;;;107.40;54.00;;;;;;;8.93;89.03;100644.38;125883;1307;107438;-71
2022/12/25 10:02:52;;;;;;;45.20;23.20;;;;;;;9.03;89.06;100646.91;125879;1303;107518;-70
2022/12/25 10:06:17;;;;;;;28.80;15.00;;;;;;;9.10;88.82;100646.86;125905;1305;107566;-71
2022/12/25 10:09:38;;;;;;;24.60;14.40;;;;;;;9.15;88.90;100645.48;125884;1297;107210;-71
2022/12/25 10:12:56;;;;;;;22.20;10.40;;;;;;;9.21;88.88;100648.36;125904;1296;107567;-71
2022/12/25 10:16:13;;;;;;;18.30;9.70;;;;;;;9.24;88.80;100644.50;125873;1289;107516;-71
2022/12/25 10:19:30;;;;;;;51.20;26.70;;;;;;;9.33;88.62;100653.00;125852;1305;107270;-71
2022/12/25 10:22:41;;;;;;;92.70;44.00;;;;;;;9.39;88.43;100660.76;125921;1307;108708;-72
2022/12/25 10:25:48;;;;;;;553.10;288.50;;;;;;;9.44;88.48;100662.95;125854;1307;107384;-71
2022/12/25 10:28:59;;;;;;;137.20;59.00;;;;;;;9.46;88.20;100665.71;125864;1305;107491;-71
2022/12/25 10:32:05;;;;;;;238.00;110.50;;;;;;;9.45;88.13;100667.02;125849;1303;107581;-71
2022/12/25 10:35:15;;;;;;;89.70;42.50;;;;;;;9.42;88.18;100666.69;125865;1310;107405;-71
2022/12/25 10:38:21;;;;;;;45.80;24.40;;;;;;;9.42;88.37;100660.02;125881;1305;107556;-71
2022/12/25 10:41:53;;;;;;;173.50;61.70;;;;;;;9.42;88.31;100659.40;125843;1307;107570;-71
2022/12/25 10:45:00;;;;;;;286.10;100.90;;;;;;;9.43;87.73;100656.14;125914;1307;107436;-71
2022/12/25 10:48:07;;;;;;;82.50;35.70;;;;;;;9.45;88.11;100660.78;125919;1303;107567;-71
2022/12/25 10:51:13;;;;;;;185.20;68.60;;;;;;;9.48;87.70;100661.45;125746;1305;107522;-71
2022/12/25 10:54:25;;;;;;;905.70;386.30;;;;;;;9.52;88.06;100660.33;125885;1310;107470;-71
2022/12/25 10:57:31;;;;;;;593.40;230.00;;;;;;;9.52;87.85;100661.05;125925;1302;106515;-71
2022/12/25 11:00:37;;;;;;;300.40;103.80;;;;;;;9.51;87.87;100658.30;125887;1304;107461;-71
2022/12/25 11:03:47;;;;;;;61.90;27.60;;;;;;;9.50;87.55;100661.99;125863;1297;107612;-72
2022/12/25 11:07:06;;;;;;;93.60;55.20;;;;;;;9.49;87.72;100660.81;125922;1306;106320;-71
2022/12/25 11:10:23;;;;;;;34.80;20.80;;;;;;;9.50;87.31;100659.47;125901;1306;106584;-71
2022/12/25 11:13:30;;;;;;;45.20;25.30;;;;;;;9.56;87.31;100656.83;125871;1306;107434;-71
2022/12/25 11:16:39;;;;;;;21.50;13.20;;;;;;;9.61;87.20;100662.08;125904;1305;107451;-71
2022/12/25 11:19:54;;;;;;;26.70;14.60;;;;;;;9.51;86.65;100661.69;125923;1297;106577;-71
2022/12/25 11:22:59;;;;;;;33.40;15.50;;;;;;;9.48;86.80;100663.77;125903;1306;107378;-71
2022/12/25 11:26:07;;;;;;;20.00;11.40;;;;;;;9.46;86.75;100663.05;125882;1306;107385;-71
2022/12/25 11:29:23;;;;;;;18.20;10.20;;;;;;;9.41;86.11;100659.70;125893;1306;107262;-72
2022/12/25 11:32:34;;;;;;;18.20;9.40;;;;;;;9.34;86.66;100659.95;125883;1306;107511;-71
2022/12/25 11:35:47;;;;;;;15.40;10.10;;;;;;;9.26;86.08;100666.69;125843;1305;107335;-71
2022/12/25 11:38:53;;;;;;;18.80;10.80;;;;;;;9.15;86.35;100659.13;125930;1306;106454;-71
2022/12/25 11:42:02;;;;;;;15.30;9.50;;;;;;;9.18;86.58;100661.23;125887;1306;107569;-71
2022/12/25 11:45:15;;;;;;;22.50;13.10;;;;;;;9.13;86.11;100656.48;125893;1306;107385;-71
2022/12/25 11:48:27;;;;;;;25.10;14.20;;;;;;;9.10;86.25;100657.66;125899;1307;107276;-71
2022/12/25 11:51:37;;;;;;;102.60;40.70;;;;;;;9.12;86.13;100651.81;125883;1306;107530;-71
2022/12/25 11:54:50;;;;;;;272.70;102.60;;;;;;;9.16;86.60;100655.73;125878;1306;107525;-71
2022/12/25 11:57:59;;;;;;;58.20;25.60;;;;;;;9.21;86.24;100651.70;125968;1307;107637;-71
2022/12/25 12:01:08;;;;;;;44.50;19.20;;;;;;;9.23;85.79;100654.21;125871;1306;107571;-71
2022/12/25 12:04:21;;;;;;;124.80;49.60;;;;;;;9.24;85.70;100652.30;125895;1303;107516;-71
2022/12/25 12:07:29;;;;;;;29.10;14.20;;;;;;;9.32;86.13;100642.94;125875;1310;106689;-72
2022/12/25 12:10:44;;;;;;;49.40;30.20;;;;;;;9.41;85.64;100642.34;125989;1307;107617;-71
2022/12/25 12:14:02;;;;;;;31.60;20.30;;;;;;;9.47;85.40;100647.69;125956;1304;107216;-72
2022/12/25 12:17:12;;;;;;;35.30;21.40;;;;;;;9.47;85.11;100652.11;125918;1306;107421;-71
2022/12/25 12:20:31;;;;;;;31.40;19.60;;;;;;;9.46;84.74;100653.63;125943;1307;107524;-73
2022/12/25 12:23:47;;;;;;;25.70;17.00;;;;;;;9.43;85.31;100651.54;125939;1297;107678;-71
2022/12/25 12:27:04;;;;;;;14.70;9.70;;;;;;;9.47;85.53;100647.52;125906;1307;107540;-71
2022/12/25 12:30:25;;;;;;;8.80;5.90;;;;;;;9.50;85.76;100647.23;125899;1307;107630;-71
2022/12/25 12:33:36;;;;;;;13.10;9.60;;;;;;;9.53;85.42;100648.04;125911;1305;107725;-71
2022/12/25 12:36:41;;;;;;;11.90;7.20;;;;;;;9.53;85.22;100648.52;125845;1306;107415;-71
2022/12/25 12:39:53;;;;;;;10.30;6.50;;;;;;;9.54;84.88;100652.35;126037;1297;107212;-71
2022/12/25 12:42:59;;;;;;;11.00;6.60;;;;;;;9.52;85.02;100647.45;125868;1305;107681;-71
2022/12/25 12:46:15;;;;;;;10.00;6.30;;;;;;;9.44;84.87;100650.23;125916;1303;106699;-71
2022/12/25 12:49:24;;;;;;;29.10;20.00;;;;;;;9.36;84.67;100650.71;125917;1298;107378;-72
2022/12/25 12:52:35;;;;;;;52.70;28.00;;;;;;;9.27;84.76;100648.48;125936;1297;107722;-72
2022/12/25 12:55:40;;;;;;;23.50;12.70;;;;;;;9.18;84.89;100647.05;125932;1286;108684;-71
2022/12/25 12:58:49;;;;;;;19.30;12.30;;;;;;;9.09;84.55;100645.84;125890;1310;107272;-71
2022/12/25 13:02:13;;;;;;;10.90;6.90;;;;;;;9.02;84.52;100645.02;125963;1306;107309;-71
2022/12/25 13:05:28;;;;;;;18.10;7.80;;;;;;;8.98;84.70;100651.05;126042;1305;107476;-71
2022/12/25 13:08:51;;;;;;;14.80;8.80;;;;;;;8.97;84.44;100658.06;125894;1305;106134;-71
2022/12/25 13:11:58;;;;;;;15.10;9.40;;;;;;;8.94;84.25;100661.72;125886;1306;108657;-72
2022/12/25 13:15:03;;;;;;;15.20;9.00;;;;;;;8.89;84.28;100672.20;125948;1304;107975;-71
2022/12/25 13:18:13;;;;;;;15.60;8.60;;;;;;;8.84;84.43;100676.52;125909;1307;107502;-71
2022/12/25 13:21:22;;;;;;;17.40;8.40;;;;;;;8.81;84.36;100680.34;125906;1306;107428;-71
2022/12/25 13:24:29;;;;;;;11.80;6.40;;;;;;;8.75;83.96;100685.83;125883;1306;107522;-71
2022/12/25 13:27:35;;;;;;;10.00;5.70;;;;;;;8.69;83.88;100689.23;125011;1299;1213201;-71
2022/12/25 13:30:41;;;;;;;11.40;5.80;;;;;;;8.65;83.85;100697.15;125876;1303;106877;-71
2022/12/25 13:33:51;;;;;;;8.40;3.70;;;;;;;8.63;83.87;100696.41;125919;1306;107531;-71
2022/12/25 13:36:57;;;;;;;15.90;6.50;;;;;;;8.63;83.78;100693.02;125899;1305;107432;-71
2022/12/25 13:40:19;;;;;;;11.60;8.30;;;;;;;8.63;83.26;100697.64;125883;1307;107777;-71
2022/12/25 13:43:27;;;;;;;18.40;7.90;;;;;;;8.58;83.23;100695.96;125886;1297;107422;-71
2022/12/25 13:46:32;;;;;;;13.50;6.60;;;;;;;8.58;83.37;100691.73;125909;1306;107662;-71
2022/12/25 13:49:38;;;;;;;9.60;5.10;;;;;;;8.57;83.44;100693.19;125888;1307;107545;-71
2022/12/25 13:52:44;;;;;;;12.40;5.60;;;;;;;8.57;83.70;100692.53;125846;1307;105787;-71
2022/12/25 13:55:53;;;;;;;9.70;5.00;;;;;;;8.55;83.57;100698.31;125934;1307;106820;-71
2022/12/25 13:58:58;;;;;;;6.40;4.60;;;;;;;8.54;83.76;100705.67;125943;1306;107396;-71
2022/12/25 14:02:16;;;;;;;8.50;3.70;;;;;;;8.52;83.89;100708.41;125869;1296;107797;-72
2022/12/25 14:05:27;;;;;;;6.90;3.40;;;;;;;8.49;83.96;100708.58;125867;1305;108704;-71
2022/12/25 14:08:35;;;;;;;14.10;8.70;;;;;;;8.47;83.91;100706.13;125947;1305;107419;-72
2022/12/25 14:11:44;;;;;;;20.70;13.20;;;;;;;8.49;83.98;100702.22;125947;1303;107735;-71
2022/12/25 14:14:52;;;;;;;21.10;12.00;;;;;;;8.51;84.05;100697.47;125964;1305;107573;-71
2022/12/25 14:17:58;;;;;;;87.80;36.00;;;;;;;8.49;84.00;100689.80;125843;1305;107265;-71
2022/12/25 14:21:06;;;;;;;26.70;11.40;;;;;;;8.48;83.92;100692.95;125893;1307;107546;-72
2022/12/25 14:24:15;;;;;;;12.60;6.10;;;;;;;8.46;84.15;100693.78;125903;1305;107591;-71
2022/12/25 14:27:23;;;;;;;8.70;5.40;;;;;;;8.43;84.10;100692.64;125901;1307;107417;-71
2022/12/25 14:30:30;;;;;;;8.00;4.50;;;;;;;8.38;84.26;100692.33;125868;1297;107417;-71
2022/12/25 14:33:39;;;;;;;14.70;7.10;;;;;;;8.33;84.22;100689.70;125815;1305;107586;-71
2022/12/25 14:36:45;;;;;;;21.70;9.50;;;;;;;8.29;84.27;100689.82;125848;1305;107324;-71
2022/12/25 14:39:58;;;;;;;17.70;8.90;;;;;;;8.27;84.35;100691.05;125866;1305;108685;-71
2022/12/25 14:43:06;;;;;;;51.60;20.40;;;;;;;8.29;84.37;100689.38;125925;1299;106415;-72
2022/12/25 14:46:24;;;;;;;18.30;9.10;;;;;;;8.27;84.22;100696.06;125898;1305;107345;-71
2022/12/25 14:49:32;;;;;;;11.70;6.10;;;;;;;8.19;84.08;100696.47;125894;1307;107544;-71
2022/12/25 14:52:43;;;;;;;43.40;27.50;;;;;;;8.13;84.10;100701.47;125915;1306;107517;-71
2022/12/25 14:55:50;;;;;;;17.90;9.90;;;;;;;8.03;84.30;100706.36;125861;1299;107632;-71
2022/12/25 14:58:58;;;;;;;10.70;5.70;;;;;;;7.96;84.36;100718.77;125920;1297;107560;-71
2022/12/25 15:02:07;;;;;;;8.80;5.70;;;;;;;7.93;84.47;100719.77;125959;1305;107236;-71
2022/12/25 15:05:31;;;;;;;7.00;4.60;;;;;;;7.92;84.49;100722.13;125923;1291;107265;-71
2022/12/25 15:08:39;;;;;;;6.50;4.10;;;;;;;7.95;84.47;100725.80;125943;1307;107455;-72
2022/12/25 15:11:49;;;;;;;40.90;19.10;;;;;;;7.97;84.35;100727.52;125919;1303;109313;-71
2022/12/25 15:14:54;;;;;;;14.00;7.90;;;;;;;7.97;84.36;100718.54;125839;1307;107611;-71
2022/12/25 15:18:02;;;;;;;14.70;8.90;;;;;;;7.97;84.36;100712.67;125863;1306;107500;-71
2022/12/25 15:21:14;;;;;;;18.40;10.30;;;;;;;7.95;84.26;100708.08;125944;1297;107481;-71
2022/12/25 15:24:19;;;;;;;34.50;17.50;;;;;;;7.92;84.36;100719.31;125906;1306;107329;-72
2022/12/25 15:27:24;;;;;;;16.10;8.70;;;;;;;7.86;84.34;100716.42;125836;1306;107593;-71
2022/12/25 15:30:32;;;;;;;11.60;6.40;;;;;;;7.82;84.49;100721.13;125871;1299;107549;-71
2022/12/25 15:33:37;;;;;;;11.90;5.70;;;;;;;7.81;84.45;100718.35;125973;1307;107090;-71
2022/12/25 15:36:43;;;;;;;11.80;7.00;;;;;;;7.83;84.32;100723.33;125912;1297;108620;-72
2022/12/25 15:39:48;;;;;;;12.10;7.70;;;;;;;7.84;84.41;100718.81;125861;1307;107288;-71
2022/12/25 15:42:54;;;;;;;17.70;10.00;;;;;;;7.81;84.46;100718.52;125903;1298;107559;-71
2022/12/25 15:45:59;;;;;;;17.20;9.90;;;;;;;7.79;84.42;100725.08;125895;1307;107289;-71
2022/12/25 15:49:05;;;;;;;19.20;11.10;;;;;;;7.78;84.41;100728.32;125904;1305;106610;-71